Burgos, España

12:22 AM CEST en Octubre 23, 2014 (GMT +0200)
Illera | Change Station
CLOSE
Current Station
Estación meteorológica personal
Location: Burgos, CASTILLA Y LE�N
Altura: 2851 ft
Estaciones meteorológicas cercanas

Alt 2851 ft 42.35 °N, 3.69 °W | Updated 34 minutes ago

Clear
Despejado
53.8 ° F
Sensación térmica 53.8 ° F
N
0.0
Viento Variable Viento desde Este
Gusts 0.0 mph

Hoy
Alta -- | Baja -- ° F
--% Posibilidad de precipitaciones
Ayer
Alta -- | Baja -- ° F
Precip. -- pul
8:36 AM 7:20 PM
Creciente menguante, 1% visible
Presión 30.42 pul
Visibilidad -9999.0 Millas
Nubes
Punto de rocío 35 ° F
Humedad 49%
Precipitaciones 0.00 pul
Espesor de la nieve No disponible.
UV No disponible.
Polen No disponible.
Calidad del aire No disponible.
Flu Activity No disponible.
METAR LEBG 222200Z AUTO 00000KT CAVOK 05/03 Q1030

More Conditions Fewer Conditions

Presión 30.42 pul
Visibilidad -9999.0 Millas
Nubes
Punto de rocío 35 ° F
Humedad 49%
Precipitaciones 0.00 pul
Espesor de la nieve No disponible.
UV No disponible.
Polen No disponible.
Calidad del aire No disponible.
Flu Activity No disponible.
METAR LEBG 222200Z AUTO 00000KT CAVOK 05/03 Q1030

More Conditions Fewer Conditions

10-Day Weather Forecast

Almanac

Astronomía

Oct. 23, 2014 Salida Puesta
Hora real 8:36 AM CEST 7:20 PM CEST
Crepúsculo civil 8:07 AM CEST 7:49 PM CEST
Crepúsculo náutico 7:35 AM CEST 8:21 PM CEST
Crepúsculo astronómico 7:02 AM CEST 8:54 PM CEST
Luna 8:01 AM CEST (10/23) 7:13 PM CEST (10/23)
Horas de luz 11h 41m
Horas de luz
10h 43m
Tomorrow will be 2m 40s shorter.
Creciente menguante, 1% of the Moon is Illuminated
Oct 22
Creciente menguante
Oct 23
Nueva
Oct 30
Cuarto creciente
Nov 6
Luna llena
Nov 14
Cuarto menguante

Extremos de ayer

Máximos del país Bajas del país

Community

WunderPhotos

Upload Photos

1,764,064 ¡fotos cargadas!

WunderBlogs® & News

Nearby

Calidad del aire

Not available.

Grosos de nieve

Not available.

Actividad de terremotos

Ciudad Distance Mag. Tiempo y dato
No hay informes recientes de la actividad sísmica.
Magnitud mínima muestra es 2,5.

Temperaturas de aguas costeras

Lugar Temperatura
Sin partes meteorológicos de las estaciones

Estaciones meteorológicas cercanas